AirNav   TITAN Aviation Fuels
 
 643 users online  

2R9 Kenedy Regional Airport
Kenedy, Texas, USA

GOING TO KENEDY?


FAA INFORMATION EFFECTIVE 09 SEPTEMBER 2021

Location

FAA Identifier: 2R9
Lat/Long: 28-49-29.9485N 097-51-56.0460W
28-49.499142N 097-51.934100W
28.8249857,-97.8655683
(estimated)
Elevation: 288.7 ft. / 88.0 m (surveyed)
Variation: 05E (2010)
From city: 1 mile NW of KENEDY, TX
Time zone: UTC -5 (UTC -6 during Standard Time)
Zip code: 78119

Airport Operations

Airport use: Open to the public
Control tower: no
ARTCC: HOUSTON CENTER
FSS: SAN ANGELO FLIGHT SERVICE STATION
NOTAMs facility: SJT (NOTAM-D service available)
Attendance: MON-FRI DAYLIGHT HOURS
Wind indicator: lighted
Segmented circle: yes
Lights: MIRL RWY 16/34 & TWY LGTS PRESET LOW INTST; TO INCR INTST ACTVT - CTAF.
Beacon: white-green (lighted land airport)
Operates sunset to sunrise.

Airport Communications

CTAF/UNICOM: 123.0
WX AWOS-3PT: 118.45 (830-583-8080)
WX ASOS at NGT (18 nm SE): 353.675
  • APCH/DEP CTL SVC PRVDD BY HOUSTON ARTCC (ZHU) ON FREQS 134.6/322.5 (THREE RIVERS RCAG).

Nearby radio navigation aids

VOR radial/distance  VOR name  Freq  Var
THXr030/24.4THREE RIVERS VORTAC111.4008E
SSFr122/(39.9)STINSON VOR108.4009E

Airport Services

Fuel available: 100LL JET-A
Parking: tiedowns
Airframe service: MAJOR
Powerplant service: MAJOR

Runway Information

Runway 16/34

Dimensions: 3218 x 60 ft. / 981 x 18 m
Surface: asphalt, in fair condition
Weight bearing capacity: 
Single wheel: 11.0
Runway edge lights: medium intensity
Runway edge markings: MARKINGS FADED
RUNWAY 16  RUNWAY 34
Latitude: 28-49.760033N28-49.238250N
Longitude: 097-51.990067W097-51.878133W
Elevation: 288.7 ft.272.2 ft.
Traffic pattern: rightleft
Runway heading: 164 magnetic, 169 true344 magnetic, 349 true
Markings: basic, in poor conditionbasic, in poor condition
Visual slope indicator: 2-light PAPI on left (3.00 degrees glide path)2-light PAPI on left (3.60 degrees glide path)
RSTRD 7 DEGS LEFT DUE TO OBSTS.
Runway end identifier lights: yes
Touchdown point: yes, no lightsyes, no lights
Obstructions: 34 ft. pole, 628 ft. from runway, 306 ft. left of centerline, 12:1 slope to clear
+6 FT DIRT ROAD 144 FT FM THR.
31 ft. trees, 200 ft. from runway, 195 ft. left of centerline
+35 FT TREES 0-200 FT FM THR, 177-200 FT LEFT; 5 FT FENCE 0-200 FT FM THR, 105-200 FT LEFT.

Airport Ownership and Management from official FAA records

Ownership: Publicly-owned
Owner: CITY OF KENEDY
303 W.MAIN
KENEDY, TX 78119
Phone 830-583-2230
Manager: RON HYDE
P.O. BOX 569
KENEDY, TX 78119
Phone (830) 583-5930

Airport Operational Statistics

Aircraft based on the field: 14
Single engine airplanes: 13
Multi engine airplanes: 1
    
Aircraft operations: avg 57/week *
67% local general aviation
33% transient general aviation
* for 12-month period ending 26 January 2017

Additional Remarks

DEER ON & INVOF ARPT (SEASONAL).
ACFT AIRFRAME & POWER PLANT REPAIRS ON CALL 830-299-2295.
SOUTH TWY CLSD.
FOR CD CTC HOUSTON ARTCC AT 281-230-5622.

Instrument Procedures

NOTE: All procedures below are presented as PDF files. If you need a reader for these files, you should download the free Adobe Reader.

NOT FOR NAVIGATION. Please procure official charts for flight.
FAA instrument procedures published for use from 09 September 2021 at 0901Z to 07 October 2021 at 0900Z.

 
IAPs - Instrument Approach Procedures
RNAV (GPS) RWY 16   download (182KB)
RNAV (GPS) RWY 34   download (176KB)
NOTE: Special Alternate Minimums apply   download (123KB)
NOTE: Special Take-Off Minimums/Departure Procedures apply   download (213KB)

Other nearby airports with instrument procedures:

KNGT - Goliad Naval Outlying Field (18 nm SE)
KBEA - Beeville Municipal Airport (28 nm S)
TX2 - Chase Field Industrial Airport (30 nm S)
8T6 - Live Oak County Airport (31 nm SW)
KPEZ - Pleasanton Municipal Airport (35 nm W)
 
Loc | Ops | Rwys | IFR | FBO | Links
Com | Nav | Svcs | Stats | Notes
Area around 2R9 (Kenedy Regional Airport)
 
Road maps at: MapQuest Bing Google
 
Aerial photo
WARNING: Photo may not be current or correct
Aerial photo of 2R9 (Kenedy Regional Airport)
Photo by Glenn Maleske
Taken late January 2010

Do you have a better or more recent aerial photo of Kenedy Regional Airport that you would like to share? If so, please send us your photo.

 
Sectional chart

 
Airport distance calculator
Flying to Kenedy Regional Airport? Find the distance to fly.

From to 2R9

Sunrise and sunset
Times for 24-Sep-2021
 Local
(UTC-5)
 Zulu
(UTC)
Morning civil twilight06:5811:58
Sunrise07:2212:22
Sunset19:2500:25
Evening civil twilight19:4900:49

Current date and time
Zulu (UTC)  24-Sep-2021 05:20:38
Local (UTC-5)  24-Sep-2021 00:20:38
 
METAR
K2R9 240455Z AUTO 00000KT 10SM CLR 19/13 A3007 RMK AO2 T01880125
TAF
KSSF 
44nm NW 
231726Z 2318/2418 11005KT P6SM FEW250= TAF KAUS 231726Z 2318/2424 11004KT P6SM FEW250
KRND 
47nm NW 
231600Z 2316/2422 VRB06KT 9999 FEW250 QNH2997INS TX31/2320Z TN16/2411Z LAST NO AMDS AFT 2400 NEXT 2410
KVCT 
49nm E 
231720Z 2318/2418 10008KT P6SM SKC FM240300 VRB03KT P6SM SKC FM241500 12007KT P6SM SKC
KSKF 
49nm NW 
240200Z 2402/2508 12007KT 9999 FEW250 QNH2996INS WND VRB03KT 2407-2415 TX31/2421Z TN13/2412Z
NOTAMs
Click for the latest NOTAMs
NOTAMs are issued by the DoD/FAA and will open in a separate window not controlled by AirNav.

 

 
 

FBO, Fuel Providers, and Aircraft Ground Support

  
 Business Name 
 
 Contact 
 
 Services / Description 
 
Fuel Prices
 
Comments
  
Stetson Aviation, Inc. 830-583-9884
830-583-5930
[web site]
[email]
Aviation fuel, Aircraft ground handling, Aircraft parking (ramp or tiedown), Hangar leasing / sales, GPU / Power cart, Passenger terminal and lounge, ...

More info about Stetson Aviation, Inc.
Avfuel
100LL Jet A
SS $4.90 $3.35 
 Updated 17-Sep-2021
 
   3 read write
SS=Self service
Update Fuel Prices
 

Where to Eat: Catering, Restaurants, Food shops

  
 Business Name 
 
 Contact 
 
 Services / Description 
 
Distance
 
Comments
  
Barth's Restaurant 830-583-2468
no information available

If you are affiliated with Barth's Restaurant and would like to show here your services, contact info, web link, logo, and more, click here
0.2 miles  
   write
 

Would you like to see your business listed on this page?

 If your business provides an interesting product or service to pilots, flight crews, aircraft, or users of the Kenedy Regional Airport, you should consider listing it here.  To start the listing process, click on the button below
 
Add a business
 

Other Pages about Kenedy Regional Airport

Update a link
 
Copyright © AirNav, LLC. All rights reserved. Privacy Policy  Contact